createdAt,value
2023-01-11T00:00:01.586Z,97.05
2023-01-11T00:05:01.669Z,96.98
2023-01-11T00:10:01.974Z,96.21
2023-01-11T00:15:01.685Z,95.83
2023-01-11T00:20:02.067Z,95.87
2023-01-11T00:25:02.124Z,96.25
2023-01-11T00:30:02.169Z,96.55
2023-01-11T00:35:02.108Z,96.05
2023-01-11T00:40:02.113Z,95.23
2023-01-11T00:45:02.033Z,95.19
2023-01-11T00:50:01.964Z,94.88
2023-01-11T00:55:01.997Z,94.81
2023-01-11T01:00:02.077Z,95.16
2023-01-11T01:05:01.561Z,94.99
2023-01-11T01:10:01.963Z,94.98
2023-01-11T01:15:02.257Z,95.28
2023-01-11T01:20:01.337Z,95.09
2023-01-11T01:25:01.575Z,95.21
2023-01-11T01:30:01.855Z,95.25
2023-01-11T01:35:01.797Z,95.38
2023-01-11T01:40:01.847Z,95.84
2023-01-11T01:45:01.859Z,95.54
2023-01-11T01:50:02.073Z,95.37
2023-01-11T01:55:02.340Z,95.29
2023-01-11T02:00:02.223Z,95.38
2023-01-11T02:05:01.700Z,95.39
2023-01-11T02:10:02.267Z,95.54
2023-01-11T02:15:01.377Z,95.52
2023-01-11T02:20:01.580Z,95.67
2023-01-11T02:25:01.260Z,95.95
2023-01-11T02:30:01.755Z,96.14
2023-01-11T02:35:01.887Z,96.12
2023-01-11T02:40:01.992Z,95.87
2023-01-11T02:45:02.305Z,95.8
2023-01-11T02:50:01.500Z,96.02
2023-01-11T02:55:01.897Z,96.45
2023-01-11T03:00:01.967Z,96.51
2023-01-11T03:05:02.108Z,96.45
2023-01-11T03:10:02.203Z,96.78
2023-01-11T03:15:02.009Z,96.89
2023-01-11T03:20:01.408Z,96.86
2023-01-11T03:25:01.688Z,96.4
2023-01-11T03:30:01.974Z,95.85
2023-01-11T03:35:02.222Z,95.54
2023-01-11T03:40:02.076Z,95.48
2023-01-11T03:45:02.184Z,95.2
2023-01-11T03:50:01.781Z,94.77
2023-01-11T03:55:01.940Z,94.71
2023-01-11T04:00:01.764Z,94.56
2023-01-11T04:05:02.049Z,94.63
2023-01-11T04:10:01.870Z,94.87
2023-01-11T04:15:01.413Z,94.99
2023-01-11T04:20:01.746Z,95.34
2023-01-11T04:25:02.272Z,95.46
2023-01-11T04:30:02.101Z,95.58
2023-01-11T04:35:02.175Z,95.72
2023-01-11T04:40:02.285Z,96.55
2023-01-11T04:45:02.249Z,97.38
2023-01-11T04:50:01.387Z,97.63
2023-01-11T04:55:01.588Z,97.11
2023-01-11T05:00:02.009Z,97.24
2023-01-11T05:05:01.358Z,97.75
2023-01-11T05:10:01.695Z,97.99
2023-01-11T05:15:01.802Z,100.18
2023-01-11T05:20:02.249Z,98.43
2023-01-11T05:25:02.212Z,98.56
2023-01-11T05:30:01.991Z,98.5
2023-01-11T05:35:01.995Z,98.84
2023-01-11T05:40:01.419Z,98.88
2023-01-11T05:45:01.625Z,98.84
2023-01-11T05:50:01.638Z,99.21
2023-01-11T05:55:01.708Z,99.21
2023-01-11T06:00:01.630Z,99.06
2023-01-11T06:05:01.925Z,99.17
2023-01-11T06:10:02.064Z,99
2023-01-11T06:15:02.172Z,98.86
2023-01-11T06:20:02.111Z,98.75
2023-01-11T06:25:01.968Z,98.79
2023-01-11T06:30:02.005Z,98.48
2023-01-11T06:35:01.855Z,98.46
2023-01-11T06:40:01.374Z,98.57
2023-01-11T06:45:01.895Z,98.43
2023-01-11T06:50:01.940Z,98.48
2023-01-11T06:55:01.827Z,98.48
2023-01-11T07:00:02.090Z,99.19
2023-01-11T07:05:02.164Z,99.43
2023-01-11T07:10:01.689Z,99.75
2023-01-11T07:15:01.840Z,100.03
2023-01-11T07:20:01.714Z,100.19
2023-01-11T07:25:01.856Z,100.28
2023-01-11T07:30:01.940Z,100.69
2023-01-11T07:35:01.960Z,100.69
2023-01-11T07:40:01.526Z,100.8
2023-01-11T07:45:01.852Z,100.69
2023-01-11T07:50:01.663Z,100.89
2023-01-11T07:55:01.921Z,101.22
2023-01-11T08:00:01.986Z,101.15
2023-01-11T08:05:03.237Z,101.4
2023-01-11T08:10:01.855Z,101.42
2023-01-11T08:15:01.996Z,101.59
2023-01-11T08:20:02.268Z,101.35
2023-01-11T08:25:01.482Z,101.51
2023-01-11T08:30:01.644Z,101.43
2023-01-11T08:35:01.929Z,101.94
2023-01-11T08:40:02.299Z,101.77
2023-01-11T08:45:02.277Z,101.79
2023-01-11T08:50:02.291Z,101.85
2023-01-11T08:55:02.129Z,102.06
2023-01-11T09:00:01.371Z,101.91
2023-01-11T09:05:01.679Z,101.89
2023-01-11T09:10:01.952Z,101.82
2023-01-11T09:15:02.033Z,101.94
2023-01-11T09:20:02.268Z,101.77
2023-01-11T09:25:02.248Z,101.64
2023-01-11T09:30:01.464Z,101.72
2023-01-11T09:35:01.597Z,101.77
2023-01-11T09:40:01.827Z,101.87
2023-01-11T09:45:01.846Z,101.91
2023-01-11T09:50:02.097Z,101.73
2023-01-11T09:55:02.189Z,101.93
2023-01-11T10:00:02.269Z,101.9
2023-01-11T10:05:02.303Z,101.79
2023-01-11T10:18:23.281Z,101.76
2023-01-11T10:18:31.447Z,101.87
2023-01-11T10:20:01.621Z,102.02
2023-01-11T10:25:01.855Z,102.14
2023-01-11T10:30:01.925Z,102.36
2023-01-11T10:35:01.950Z,102.14
2023-01-11T10:40:01.920Z,102.14
2023-01-11T10:45:01.731Z,102.14
2023-01-11T10:50:03.472Z,101.23
2023-01-11T10:55:01.928Z,101.07
2023-01-11T11:00:02.150Z,101.08
2023-01-11T11:05:02.268Z,100.82
2023-01-11T11:10:01.428Z,100.18
2023-01-11T11:15:01.758Z,100.15
2023-01-11T11:20:01.860Z,99.89
2023-01-11T11:25:01.922Z,100.14
2023-01-11T11:30:02.023Z,99.92
2023-01-11T11:35:02.086Z,99.14
2023-01-11T11:40:02.422Z,98.49
2023-01-11T11:45:01.595Z,98.12
2023-01-11T11:50:02.086Z,98.39
2023-01-11T11:55:02.008Z,97.96
2023-01-11T12:00:02.074Z,97.85
2023-01-11T12:05:02.256Z,99.19
2023-01-11T12:10:02.206Z,97.9
2023-01-11T12:15:01.327Z,95.68
2023-01-11T12:20:01.625Z,98.72
2023-01-11T12:25:01.849Z,98.5
2023-01-11T12:30:02.117Z,98.61
2023-01-11T12:35:02.219Z,95.89
2023-01-11T12:40:01.834Z,97.53
2023-01-11T12:45:02.261Z,97.9
2023-01-11T12:50:01.460Z,96.09
2023-01-11T12:55:01.937Z,95.89
2023-01-11T13:00:01.915Z,96.29
2023-01-11T13:05:01.997Z,96.39
2023-01-11T13:10:01.484Z,97.19
2023-01-11T13:15:02.267Z,96.16
2023-01-11T13:20:01.705Z,96.79
2023-01-11T13:25:02.066Z,97.4
2023-01-11T13:30:01.658Z,97.05
2023-01-11T13:35:02.091Z,95.77
2023-01-11T13:40:02.011Z,95.66
2023-01-11T13:45:01.987Z,95.16
2023-01-11T13:50:02.247Z,93.48
2023-01-11T13:55:01.437Z,93.3
2023-01-11T14:00:01.969Z,93.74
2023-01-11T14:05:02.195Z,94.25
2023-01-11T14:10:01.442Z,93.61
2023-01-11T14:15:01.779Z,93.89
2023-01-11T14:20:02.206Z,93.05
2023-01-11T14:25:01.353Z,93.42
2023-01-11T14:30:01.792Z,94.25
2023-01-11T14:35:02.240Z,94.77
2023-01-11T14:40:02.238Z,94.59
2023-01-11T14:45:02.207Z,94.48
2023-01-11T14:50:01.392Z,95.24
2023-01-11T14:55:01.443Z,95.22
2023-01-11T15:00:01.787Z,95.33
2023-01-11T15:05:02.056Z,95.47
2023-01-11T15:10:01.320Z,94.89
2023-01-11T15:15:01.547Z,94.86
2023-01-11T15:20:01.975Z,94.86
2023-01-11T15:25:01.317Z,94.41
2023-01-11T15:30:01.855Z,94.12
2023-01-11T15:35:01.983Z,94.54
2023-01-11T15:40:02.077Z,94.51
2023-01-11T15:45:02.158Z,94.91
2023-01-11T15:50:02.117Z,94.82
2023-01-11T15:55:01.504Z,94.84
2023-01-11T16:00:02.089Z,95.5
2023-01-11T16:05:02.200Z,95.83
2023-01-11T16:10:01.438Z,96.31
2023-01-11T16:15:01.926Z,96.41
2023-01-11T16:20:02.260Z,96.93
2023-01-11T16:25:02.068Z,96.53
2023-01-11T16:30:01.913Z,96.16
2023-01-11T16:35:02.280Z,96.16
2023-01-11T16:40:01.522Z,95.43
2023-01-11T16:45:02.138Z,95.36
2023-01-11T16:50:01.403Z,95.38
2023-01-11T16:55:01.397Z,95.29
2023-01-11T17:00:01.819Z,94.8
2023-01-11T17:05:01.963Z,94.83
2023-01-11T17:10:02.155Z,95.35
2023-01-11T17:15:01.370Z,95.25
2023-01-11T17:20:02.093Z,95.65
2023-01-11T17:25:02.067Z,95.73
2023-01-11T17:30:01.392Z,96.57
2023-01-11T17:35:01.959Z,96.74
2023-01-11T17:40:02.270Z,96.9
2023-01-11T17:45:01.316Z,97.07
2023-01-11T17:50:01.743Z,97.33
2023-01-11T17:55:01.910Z,97.29
2023-01-11T18:00:01.347Z,97.5
2023-01-11T18:05:01.618Z,97.08
2023-01-11T18:10:03.918Z,96.54
2023-01-11T18:15:02.208Z,95.96
2023-01-11T18:20:01.485Z,95.64
2023-01-11T18:25:01.663Z,95.09
2023-01-11T18:30:01.787Z,94.33
2023-01-11T18:35:02.013Z,93.49
2023-01-11T18:40:02.095Z,93.8
2023-01-11T18:45:02.173Z,93.43
2023-01-11T18:50:02.181Z,92.97
2023-01-11T18:55:01.314Z,92.97
2023-01-11T19:00:01.758Z,92.16
2023-01-11T19:05:02.294Z,91.73
2023-01-11T19:10:01.318Z,92.35
2023-01-11T19:15:01.477Z,91.71
2023-01-11T19:20:01.658Z,92.45
2023-01-11T19:25:01.788Z,92.42
2023-01-11T19:30:01.949Z,92.1
2023-01-11T19:35:02.235Z,92.66
2023-01-11T19:40:01.527Z,93.02
2023-01-11T19:45:01.669Z,93.13
2023-01-11T19:50:01.999Z,92.61
2023-01-11T19:55:02.065Z,92.69
2023-01-11T20:00:01.503Z,92.28
2023-01-11T20:05:02.164Z,92.22
2023-01-11T20:10:01.748Z,91.59
2023-01-11T20:15:01.819Z,91.72
2023-01-11T20:20:02.132Z,91.45
2023-01-11T20:25:01.269Z,91.18
2023-01-11T20:30:01.726Z,90.92
2023-01-11T20:35:01.950Z,91.4
2023-01-11T20:40:01.897Z,90.35
2023-01-11T20:45:02.212Z,91
2023-01-11T20:50:01.316Z,91.08
2023-01-11T20:55:01.954Z,91.03
2023-01-11T21:00:01.921Z,90.53
2023-01-11T21:05:01.631Z,90.88
2023-01-11T21:10:02.120Z,90.11
2023-01-11T21:15:01.430Z,89.85
2023-01-11T21:20:01.501Z,89.94
2023-01-11T21:25:02.218Z,89.63
2023-01-11T21:30:01.931Z,90.04
2023-01-11T21:35:01.404Z,89.49
2023-01-11T21:40:01.453Z,89.13
2023-01-11T21:45:02.034Z,88.4
2023-01-11T21:50:01.691Z,88.41
2023-01-11T21:55:01.364Z,87.91
2023-01-11T22:00:01.857Z,88.23
2023-01-11T22:05:01.443Z,87.95
2023-01-11T22:10:05.418Z,87.15
2023-01-11T22:15:01.745Z,87.6
2023-01-11T22:20:01.634Z,87.17
2023-01-11T22:25:01.884Z,87.86
2023-01-11T22:30:01.611Z,87.87
2023-01-11T22:35:01.708Z,88.07
2023-01-11T22:40:02.242Z,87.66
2023-01-11T22:45:01.562Z,87.75
2023-01-11T22:50:02.200Z,88.24
2023-01-11T22:55:02.430Z,88.45
2023-01-11T23:00:05.339Z,88.07
2023-01-11T23:05:02.855Z,87.98
2023-01-11T23:10:01.869Z,88.33
2023-01-11T23:15:02.033Z,88.37
2023-01-11T23:20:01.489Z,88.51
2023-01-11T23:25:02.111Z,87.95
2023-01-11T23:30:02.178Z,88.36
2023-01-11T23:35:02.117Z,88.37
2023-01-11T23:40:01.938Z,88.24
2023-01-11T23:45:02.277Z,88.3
2023-01-11T23:50:01.327Z,88.65
2023-01-11T23:55:01.450Z,87.98
